Time;durP1;ratioP1;P1;durP2;ratioP2;P2;SDS_P1;SDS_P2;PMS_P1;PMS_P2;Temp;Humidity;BMP_temperature;BMP_pressure;BME280_temperature;BME280_humidity;BME280_pressure;Samples;Min_cycle;Max_cycle;Signal;HPM_P1;HPM_P2
2022/04/13 00:02:05;;;;;;;8.93;6.70;;;;;;;7.63;100.00;99822.09;6195956;23;20023;-64
2022/04/13 00:04:50;;;;;;;11.55;7.85;;;;;;;7.76;100.00;99833.44;6196650;23;20024;-64
2022/04/13 00:07:35;;;;;;;11.13;7.38;;;;;;;7.59;100.00;99809.81;6216564;23;20108;-63
2022/04/13 00:10:19;;;;;;;10.82;6.57;;;;;;;7.78;100.00;99826.38;6184875;23;20087;-62
2022/04/13 00:13:04;;;;;;;9.77;7.03;;;;;;;7.67;100.00;99788.63;6195037;23;20024;-63
2022/04/13 00:15:48;;;;;;;10.68;7.05;;;;;;;7.74;100.00;99816.72;6196385;23;20020;-62
2022/04/13 00:18:33;;;;;;;10.18;6.80;;;;;;;7.65;100.00;99804.50;6195781;23;20024;-63
2022/04/13 00:21:17;;;;;;;9.65;6.85;;;;;;;7.53;100.00;99795.78;6185921;23;20016;-63
2022/04/13 00:24:02;;;;;;;10.00;7.13;;;;;;;7.69;100.00;99832.63;6185569;23;20036;-63
2022/04/13 00:26:46;;;;;;;12.30;7.53;;;;;;;7.67;100.00;99821.19;6193329;23;20023;-63
2022/04/13 00:29:31;;;;;;;11.35;7.65;;;;;;;7.59;100.00;99809.81;6161515;23;20032;-63
2022/04/13 00:32:15;;;;;;;9.70;6.87;;;;;;;7.61;100.00;99797.50;6171511;23;20059;-62
2022/04/13 00:35:04;;;;;;;11.50;7.43;;;;;;;7.82;100.00;99817.53;6184035;23;20336;-64
2022/04/13 00:37:48;;;;;;;12.13;7.13;;;;;;;7.77;100.00;99804.41;6191319;23;20247;-62
2022/04/13 00:40:39;;;;;;;10.60;7.35;;;;;;;7.97;100.00;99831.50;6194106;23;20396;-63
2022/04/13 00:43:24;;;;;;;9.93;7.30;;;;;;;7.75;100.00;99826.41;6193522;23;20067;-61
2022/04/13 00:46:09;;;;;;;12.88;7.90;;;;;;;7.74;100.00;99830.81;6193056;23;20513;-62
2022/04/13 00:48:53;;;;;;;13.07;7.78;;;;;;;7.67;100.00;99789.50;6193698;23;20137;-63
2022/04/13 00:51:38;;;;;;;10.02;7.03;;;;;;;7.60;100.00;99824.75;6193522;23;20074;-62
2022/04/13 00:54:25;;;;;;;10.80;7.63;;;;;;;7.62;100.00;99809.78;6194814;23;20068;-63
2022/04/13 00:57:11;;;;;;;11.77;7.78;;;;;;;7.64;100.00;99813.28;6193631;23;20390;-63
2022/04/13 00:59:57;;;;;;;9.52;7.07;;;;;;;7.70;100.00;99821.16;6191974;23;20103;-62
2022/04/13 01:02:43;;;;;;;10.68;7.03;;;;;;;7.75;100.00;99829.06;6192806;23;20024;-63
2022/04/13 01:05:28;;;;;;;9.93;6.43;;;;;;;7.50;100.00;99785.25;6171323;23;20466;-63
2022/04/13 01:08:13;;;;;;;11.55;7.53;;;;;;;7.48;100.00;99822.19;6193617;23;20406;-62
2022/04/13 01:11:00;;;;;;;10.77;7.10;;;;;;;7.50;100.00;99819.56;6161033;23;20070;-62
2022/04/13 01:13:45;;;;;;;10.38;7.07;;;;;;;7.43;100.00;99813.44;6193792;23;20101;-62
2022/04/13 01:16:31;;;;;;;13.63;7.63;;;;;;;7.34;100.00;99804.72;6195782;23;20062;-64
2022/04/13 01:19:17;;;;;;;9.88;6.95;;;;;;;7.44;100.00;99819.59;6192664;23;20044;-64
2022/04/13 01:22:21;;;;;;;10.48;6.97;;;;;;;7.49;100.00;99818.69;6191199;23;20020;-63
2022/04/13 01:25:06;;;;;;;9.43;6.75;;;;;;;7.22;100.00;99786.34;6192138;23;20019;-62
2022/04/13 01:27:51;;;;;;;10.77;6.90;;;;;;;7.42;100.00;99824.00;6190464;23;20024;-62
2022/04/13 01:30:35;;;;;;;8.52;6.47;;;;;;;7.19;100.00;99776.69;6181685;23;20024;-61
2022/04/13 01:33:20;;;;;;;9.68;6.50;;;;;;;7.49;100.00;99805.50;6191834;23;20115;-62
2022/04/13 01:36:07;;;;;;;8.57;6.38;;;;;;;7.59;100.00;99824.75;6190674;23;20075;-62
2022/04/13 01:38:51;;;;;;;8.45;6.32;;;;;;;7.61;100.00;99805.41;6193479;23;20102;-75
2022/04/13 01:41:36;;;;;;;10.40;6.93;;;;;;;7.77;100.00;99822.00;6184528;23;20016;-62
2022/04/13 01:44:20;;;;;;;8.43;6.40;;;;;;;7.67;100.00;99815.03;6193253;23;20462;-61
2022/04/13 01:47:04;;;;;;;9.43;6.65;;;;;;;7.80;100.00;99821.97;6183344;23;20414;-63
2022/04/13 01:49:49;;;;;;;8.68;5.63;;;;;;;7.79;100.00;99822.88;6183338;23;20082;-63
2022/04/13 01:52:33;;;;;;;13.30;7.00;;;;;;;7.68;100.00;99830.84;6182990;23;20028;-62
2022/04/13 01:55:18;;;;;;;7.53;6.00;;;;;;;7.71;100.00;99832.63;6193508;23;20019;-62
2022/04/13 01:58:03;;;;;;;8.93;5.60;;;;;;;7.59;100.00;99827.38;6193818;23;20024;-69
2022/04/13 02:00:54;;;;;;;8.70;6.03;;;;;;;7.58;100.00;99825.66;6189969;23;20063;-63
2022/04/13 02:03:40;;;;;;;9.63;6.07;;;;;;;7.36;100.00;99809.09;6192745;23;20044;-64
2022/04/13 02:06:26;;;;;;;7.97;5.40;;;;;;;7.45;100.00;99829.28;6138604;23;20056;-61
2022/04/13 02:09:11;;;;;;;8.25;5.40;;;;;;;7.38;100.00;99839.00;6190518;23;20059;-62
2022/04/13 02:11:55;;;;;;;9.43;5.43;;;;;;;7.50;100.00;99840.66;6192869;23;20072;-72
2022/04/13 02:14:40;;;;;;;7.50;5.47;;;;;;;7.38;100.00;99841.63;6192123;23;20048;-63
2022/04/13 02:17:24;;;;;;;7.78;5.55;;;;;;;7.41;100.00;99854.81;6190501;23;20040;-63
2022/04/13 02:20:10;;;;;;;6.65;4.80;;;;;;;7.30;100.00;99855.72;6181617;23;20087;-62
2022/04/13 02:22:55;;;;;;;7.20;5.22;;;;;;;7.05;100.00;99815.47;6190015;23;20339;-62
2022/04/13 02:25:39;;;;;;;9.48;5.30;;;;;;;7.29;100.00;99862.78;6190553;23;20037;-63
2022/04/13 02:28:23;;;;;;;6.97;5.20;;;;;;;7.37;100.00;99854.81;6181592;23;20027;-63
2022/04/13 02:31:08;;;;;;;6.55;5.50;;;;;;;7.40;100.00;99855.66;6191612;23;20359;-71
2022/04/13 02:33:54;;;;;;;7.68;5.55;;;;;;;7.53;100.00;99862.63;6191946;23;20024;-63
2022/04/13 02:36:38;;;;;;;6.13;4.53;;;;;;;7.52;100.00;99860.88;6190110;23;20378;-64
2022/04/13 02:39:23;;;;;;;8.43;5.20;;;;;;;7.40;100.00;99862.72;6191453;23;20139;-63
2022/04/13 02:42:08;;;;;;;8.55;4.50;;;;;;;7.40;100.00;99860.09;6191297;23;20016;-63
2022/04/13 02:44:53;;;;;;;6.43;4.55;;;;;;;7.28;100.00;99863.66;6183186;23;20347;-62
2022/04/13 02:47:37;;;;;;;6.53;4.72;;;;;;;7.03;100.00;99858.50;6181162;23;20075;-63
2022/04/13 02:50:23;;;;;;;6.22;4.05;;;;;;;7.14;100.00;99868.13;6193177;23;20047;-63
2022/04/13 02:53:08;;;;;;;5.85;4.63;;;;;;;7.30;100.00;99871.56;6150091;23;20074;-63
2022/04/13 02:55:53;;;;;;;7.72;4.53;;;;;;;7.29;100.00;99869.81;6190360;23;20076;-69
2022/04/13 02:58:38;;;;;;;5.72;4.13;;;;;;;7.27;100.00;99875.09;6192211;23;20100;-63
2022/04/13 03:01:22;;;;;;;6.45;4.25;;;;;;;7.30;100.00;99872.44;6189438;23;20020;-62
2022/04/13 03:04:07;;;;;;;5.25;3.83;;;;;;;7.30;100.00;99880.34;6189288;23;20020;-64
2022/04/13 03:06:51;;;;;;;5.22;3.60;;;;;;;7.26;100.00;99875.09;6189436;23;20129;-63
2022/04/13 03:09:35;;;;;;;5.30;3.90;;;;;;;7.28;100.00;99894.44;6184859;23;20096;-63
2022/04/13 03:12:20;;;;;;;6.55;3.97;;;;;;;7.37;100.00;99892.63;6183657;23;20147;-64
2022/04/13 03:15:06;;;;;;;7.95;4.38;;;;;;;7.45;100.00;99901.38;6194850;23;20024;-63
2022/04/13 03:17:51;;;;;;;5.82;4.03;;;;;;;7.50;100.00;99882.88;6193686;23;20067;-64
2022/04/13 03:20:35;;;;;;;6.72;4.28;;;;;;;7.50;100.00;99894.31;6193836;23;20443;-63
2022/04/13 03:23:20;;;;;;;5.57;3.80;;;;;;;7.49;100.00;99899.59;6184709;23;20020;-63
2022/04/13 03:26:04;;;;;;;7.28;3.95;;;;;;;7.50;100.00;99909.25;6194274;23;20023;-63
2022/04/13 03:28:49;;;;;;;4.87;3.73;;;;;;;7.50;100.00;99904.88;6194929;23;20020;-63
2022/04/13 03:31:33;;;;;;;5.38;3.92;;;;;;;7.48;100.00;99900.47;6193096;23;20383;-62
2022/04/13 03:34:20;;;;;;;4.37;3.47;;;;;;;7.41;100.00;99904.94;6195012;23;20024;-63
2022/04/13 03:37:04;;;;;;;5.93;3.58;;;;;;;7.35;100.00;99910.22;6184428;23;20177;-61
2022/04/13 03:39:49;;;;;;;5.55;3.85;;;;;;;7.12;100.00;99911.22;6194573;23;20062;-63
2022/04/13 03:42:38;;;;;;;5.47;4.22;;;;;;;7.27;100.00;99914.66;6193010;23;20020;-63
2022/04/13 03:45:22;;;;;;;6.38;3.63;;;;;;;7.29;100.00;99909.38;6214578;23;20482;-64
2022/04/13 03:48:08;;;;;;;5.47;3.47;;;;;;;7.39;100.00;99925.13;6195110;23;20047;-64
2022/04/13 03:50:55;;;;;;;4.72;3.40;;;;;;;7.37;100.00;99916.38;6196694;23;20068;-64
2022/04/13 03:53:39;;;;;;;5.10;3.60;;;;;;;7.32;100.00;99923.41;6196467;23;20516;-63
2022/04/13 03:56:24;;;;;;;6.70;3.20;;;;;;;7.30;100.00;99914.66;6184900;23;20024;-63
2022/04/13 03:59:08;;;;;;;4.13;3.28;;;;;;;7.36;100.00;99925.16;6186551;23;20265;-62
2022/04/13 04:01:53;;;;;;;6.97;3.88;;;;;;;7.22;100.00;99911.16;6196741;23;20039;-64
2022/04/13 04:04:37;;;;;;;5.32;3.63;;;;;;;7.17;100.00;99914.69;6185466;23;20052;-63
2022/04/13 04:07:22;;;;;;;5.22;3.67;;;;;;;7.23;100.00;99915.53;6184285;23;20035;-64
2022/04/13 04:10:07;;;;;;;6.28;3.58;;;;;;;7.37;100.00;99919.00;6184679;23;20067;-63
2022/04/13 04:12:52;;;;;;;21.80;9.18;;;;;;;7.42;100.00;99911.06;6185768;23;20020;-63
2022/04/13 04:15:36;;;;;;;6.78;3.35;;;;;;;7.46;100.00;99920.69;6196061;23;20020;-63
2022/04/13 04:18:20;;;;;;;4.32;3.50;;;;;;;7.44;100.00;99922.50;6194376;23;20020;-63
2022/04/13 04:21:05;;;;;;;10.88;3.60;;;;;;;7.45;100.00;99914.56;6196285;23;20490;-64
2022/04/13 04:23:49;;;;;;;4.50;3.25;;;;;;;7.42;100.00;99916.31;6196199;23;20453;-63
2022/04/13 04:26:34;;;;;;;6.60;3.53;;;;;;;7.39;100.00;99925.13;6216490;23;20394;-65
2022/04/13 04:29:19;;;;;;;7.28;3.35;;;;;;;7.17;100.00;99909.44;6144732;23;20356;-63
2022/04/13 04:32:04;;;;;;;4.78;3.67;;;;;;;7.32;100.00;99936.59;6194895;23;20043;-63
2022/04/13 04:34:48;;;;;;;;;;;;;;;7.46;100.00;99933.91;6193332;23;20123;-62
2022/04/13 04:37:33;;;;;;;8.40;4.10;;;;;;;7.55;100.00;99925.91;6202757;23;19915;-64
2022/04/13 04:40:17;;;;;;;;;;;;;;;7.60;100.00;99934.72;6197793;23;20052;-63
2022/04/13 04:43:02;;;;;;;6.65;3.55;;;;;;;7.51;100.00;99935.63;6195943;23;19970;-64
2022/04/13 04:45:46;;;;;;;4.22;3.40;;;;;;;7.41;100.00;99933.06;6186667;23;20086;-63
2022/04/13 04:48:31;;;;;;;5.43;3.60;;;;;;;7.27;100.00;99917.28;6195455;23;20068;-63
2022/04/13 04:51:15;;;;;;;6.38;3.30;;;;;;;7.58;100.00;99937.34;6196264;23;20032;-63
2022/04/13 04:54:01;;;;;;;6.25;3.63;;;;;;;7.68;100.00;99938.19;6195625;23;20391;-65
2022/04/13 04:56:46;;;;;;;5.45;3.70;;;;;;;7.57;100.00;99940.00;6195068;23;20024;-66
2022/04/13 04:59:31;;;;;;;4.40;3.28;;;;;;;7.63;100.00;99943.47;6182562;23;20339;-64
2022/04/13 05:02:15;;;;;;;5.25;3.58;;;;;;;7.74;100.00;99944.31;6159557;23;20539;-64
2022/04/13 05:05:00;;;;;;;12.48;5.18;;;;;;;7.89;100.00;99945.97;6185045;23;20024;-65
2022/04/13 05:07:45;;;;;;;10.18;3.47;;;;;;;7.98;100.00;99940.59;6185148;23;20068;-63
2022/04/13 05:10:30;;;;;;;7.25;4.40;;;;;;;7.71;100.00;99935.53;6184696;23;20494;-63
2022/04/13 05:13:14;;;;;;;12.95;4.13;;;;;;;7.68;100.00;99946.97;6195052;23;20132;-63
2022/04/13 05:15:59;;;;;;;10.73;4.15;;;;;;;7.75;100.00;99953.09;6183731;23;20131;-63
2022/04/13 05:18:47;;;;;;;6.15;3.30;;;;;;;7.89;100.00;99956.53;6184502;23;20039;-63
2022/04/13 05:21:32;;;;;;;6.65;3.70;;;;;;;7.79;100.00;99966.25;6182538;23;20137;-63
2022/04/13 05:24:16;;;;;;;7.60;3.55;;;;;;;7.84;100.00;99974.16;6193867;23;20086;-63
2022/04/13 05:27:01;;;;;;;12.00;3.88;;;;;;;7.82;100.00;99966.25;6195548;23;20023;-61
2022/04/13 05:29:45;;;;;;;6.63;3.47;;;;;;;7.79;100.00;99973.31;6195549;23;20096;-62
2022/04/13 05:32:30;;;;;;;10.90;3.47;;;;;;;7.85;100.00;99971.50;6192754;23;20026;-63
2022/04/13 05:35:16;;;;;;;7.07;3.60;;;;;;;7.79;100.00;99982.09;6195327;23;20243;-63
2022/04/13 05:38:02;;;;;;;8.07;4.18;;;;;;;7.70;100.00;99982.16;6193025;23;20023;-64
2022/04/13 05:40:46;;;;;;;7.55;3.88;;;;;;;7.89;100.00;99980.28;6185135;23;20020;-63
2022/04/13 05:43:33;;;;;;;7.95;4.53;;;;;;;7.87;100.00;99982.94;6195706;23;20331;-66
2022/04/13 05:46:17;;;;;;;6.05;4.10;;;;;;;7.70;100.00;99949.59;6173050;23;20078;-63
2022/04/13 05:49:02;;;;;;;7.13;4.18;;;;;;;8.01;100.00;99988.13;6193182;23;20020;-63
2022/04/13 05:51:46;;;;;;;9.68;4.57;;;;;;;7.94;100.00;99975.84;6185305;23;20051;-63
2022/04/13 05:54:31;;;;;;;7.87;4.70;;;;;;;8.06;100.00;100000.41;6195236;23;20072;-63
2022/04/13 05:57:15;;;;;;;10.70;4.70;;;;;;;8.13;100.00;99995.97;6183733;23;20067;-64
2022/04/13 06:00:00;;;;;;;8.50;4.70;;;;;;;8.22;100.00;100002.09;6194846;23;20024;-64
2022/04/13 06:02:44;;;;;;;9.67;5.33;;;;;;;8.10;100.00;99998.63;6183872;23;20070;-64
2022/04/13 06:05:28;;;;;;;7.85;5.55;;;;;;;8.10;100.00;100004.78;6185435;23;20711;-64
2022/04/13 06:08:15;;;;;;;8.30;5.85;;;;;;;8.14;100.00;99995.97;6193501;23;20110;-63
2022/04/13 06:10:59;;;;;;;10.07;6.00;;;;;;;8.14;100.00;99995.06;6194427;23;20075;-63
2022/04/13 06:13:43;;;;;;;8.38;5.45;;;;;;;8.07;100.00;99988.97;6193146;23;20020;-64
2022/04/13 06:16:28;;;;;;;8.52;5.53;;;;;;;8.00;100.00;100002.22;6195043;23;20059;-63
2022/04/13 06:19:12;;;;;;;9.93;5.80;;;;;;;8.04;100.00;100003.97;6185190;23;20114;-63
2022/04/13 06:21:56;;;;;;;10.38;6.18;;;;;;;8.10;100.00;99996.88;6193859;23;20016;-63
2022/04/13 06:24:41;;;;;;;11.85;6.22;;;;;;;8.14;100.00;100014.44;6185192;23;20104;-64
2022/04/13 06:27:25;;;;;;;11.93;5.95;;;;;;;8.18;100.00;100004.72;6162058;23;20330;-63
2022/04/13 06:30:12;;;;;;;11.43;6.25;;;;;;;8.26;100.00;100011.75;6194249;23;20101;-64
2022/04/13 06:32:56;;;;;;;13.10;6.25;;;;;;;8.20;100.00;100016.19;6182838;23;20019;-62
2022/04/13 06:35:40;;;;;;;14.55;6.85;;;;;;;8.23;100.00;100022.34;6194919;23;20111;-63
2022/04/13 06:38:25;;;;;;;21.55;7.18;;;;;;;8.16;100.00;100022.38;6183005;23;20024;-63
2022/04/13 06:41:10;;;;;;;20.25;6.28;;;;;;;8.08;100.00;100035.59;6195989;23;20020;-64
2022/04/13 06:43:55;;;;;;;14.52;5.65;;;;;;;8.09;100.00;100036.50;6184169;23;20044;-64
2022/04/13 06:46:39;;;;;;;10.82;5.25;;;;;;;8.19;100.00;100033.78;6184206;23;20446;-63
2022/04/13 06:49:24;;;;;;;6.97;4.07;;;;;;;8.16;100.00;100009.16;6194852;23;20024;-64
2022/04/13 06:52:09;;;;;;;7.20;4.13;;;;;;;8.51;100.00;100039.75;6195486;23;20059;-63
2022/04/13 06:54:56;;;;;;;7.20;4.28;;;;;;;8.50;100.00;100010.69;6195311;23;20399;-63
2022/04/13 06:57:41;;;;;;;7.45;4.20;;;;;;;8.76;100.00;100041.31;6194350;23;20016;-64
2022/04/13 07:00:25;;;;;;;7.82;3.97;;;;;;;8.93;100.00;100044.69;6192550;23;20093;-63
2022/04/13 07:03:09;;;;;;;7.47;4.03;;;;;;;9.05;100.00;100023.41;6184783;23;20442;-65
2022/04/13 07:05:54;;;;;;;4.97;3.80;;;;;;;9.26;100.00;100033.78;6194446;23;20689;-65
2022/04/13 07:08:38;;;;;;;8.05;3.83;;;;;;;9.28;100.00;100032.00;6193463;23;20068;-64
2022/04/13 07:11:22;;;;;;;10.65;4.30;;;;;;;9.21;100.00;100032.06;6184808;23;20439;-64
2022/04/13 07:14:07;;;;;;;8.20;4.05;;;;;;;9.43;100.00;100052.13;6194597;23;20446;-63
2022/04/13 07:16:52;;;;;;;8.02;4.10;;;;;;;9.66;100.00;100058.03;6194928;23;20024;-62
2022/04/13 07:19:36;;;;;;;13.00;3.97;;;;;;;9.51;100.00;100060.84;6184933;23;20024;-65
2022/04/13 07:22:20;;;;;;;6.65;4.25;;;;;;;9.63;100.00;100028.94;6194556;23;20044;-62
2022/04/13 07:25:05;;;;;;;7.70;4.00;;;;;;;9.75;100.00;100057.03;6186570;23;20020;-65
2022/04/13 07:27:50;;;;;;;4.45;3.45;;;;;;;9.56;100.00;100048.44;6196426;23;20090;-64
2022/04/13 07:30:35;;;;;;;;;;;;;;;9.55;100.00;100057.28;6187016;23;20036;-65
2022/04/13 07:33:19;;;;;;;5.05;3.72;;;;;;;9.28;100.00;100008.19;6185673;23;19952;-63
2022/04/13 07:36:04;;;;;;;8.95;4.32;;;;;;;9.58;100.00;100047.53;6195096;23;20060;-64
2022/04/13 07:38:50;;;;;;;6.18;4.05;;;;;;;9.66;100.00;100058.03;6186109;23;20024;-64
2022/04/13 07:41:34;;;;;;;8.90;4.57;;;;;;;9.73;100.00;100059.69;6195615;23;20023;-64
2022/04/13 07:44:19;;;;;;;6.05;4.13;;;;;;;9.61;100.00;100070.44;6195810;23;20023;-65
2022/04/13 07:47:03;;;;;;;13.02;4.13;;;;;;;9.70;100.00;100069.47;6185451;23;20056;-66
2022/04/13 07:49:48;;;;;;;8.10;4.70;;;;;;;9.77;100.00;100071.16;6196243;23;20019;-65
2022/04/13 07:52:36;;;;;;;8.45;4.50;;;;;;;9.72;100.00;100057.09;6186713;23;20027;-64
2022/04/13 07:55:21;;;;;;;11.52;5.22;;;;;;;9.63;100.00;100081.00;6173894;23;20020;-66
2022/04/13 07:58:06;;;;;;;10.00;5.07;;;;;;;9.71;100.00;100068.56;6196092;23;20027;-64
2022/04/13 08:00:51;;;;;;;16.83;5.85;;;;;;;9.76;100.00;100072.06;6195361;23;20040;-63
2022/04/13 08:03:35;;;;;;;16.52;5.57;;;;;;;9.87;100.00;100062.19;6164782;23;20324;-64
2022/04/13 08:06:19;;;;;;;11.02;5.18;;;;;;;9.91;100.00;100079.78;6164152;23;20096;-66
2022/04/13 08:09:04;;;;;;;9.35;4.82;;;;;;;9.60;100.00;100076.63;6196609;23;20035;-64
2022/04/13 08:11:52;;;;;;;9.63;5.22;;;;;;;9.65;100.00;100085.38;6196413;23;20139;-65
2022/04/13 08:14:37;;;;;;;9.90;5.25;;;;;;;9.70;100.00;100080.06;6174803;23;20019;-65
2022/04/13 08:17:23;;;;;;;5.68;4.00;;;;;;;9.70;100.00;100086.22;6174286;23;20016;-64
2022/04/13 08:20:11;;;;;;;10.13;4.60;;;;;;;9.88;100.00;100083.34;6196028;23;20020;-65
2022/04/13 08:22:57;;;;;;;7.22;4.68;;;;;;;9.59;100.00;100046.63;6193838;23;20016;-64
2022/04/13 08:25:41;;;;;;;15.05;5.38;;;;;;;9.66;100.00;100073.03;6173665;23;20458;-65
2022/04/13 08:28:26;;;;;;;9.45;4.90;;;;;;;9.73;100.00;100088.81;6143047;23;20067;-64
2022/04/13 08:31:10;;;;;;;9.75;4.90;;;;;;;9.63;100.00;100081.91;6196536;23;20047;-63
2022/04/13 08:33:54;;;;;;;11.30;4.90;;;;;;;9.54;100.00;100082.84;6184728;23;20020;-67
2022/04/13 08:36:39;;;;;;;9.43;5.10;;;;;;;9.57;100.00;100101.38;6195832;23;20023;-64
2022/04/13 08:39:23;;;;;;;11.38;5.85;;;;;;;9.64;100.00;100093.38;6196464;23;20015;-64
2022/04/13 08:42:20;;;;;;;13.15;6.60;;;;;;;9.79;100.00;100094.06;6195150;23;20101;-65
2022/04/13 08:45:15;;;;;;;8.88;6.32;;;;;;;9.70;100.00;100094.19;6175029;23;20073;-65
2022/04/13 08:48:02;;;;;;;;;;;;;;;9.64;100.00;100096.03;6196331;23;20052;-65
2022/04/13 08:50:46;;;;;;;13.20;6.40;;;;;;;9.82;100.00;100072.84;6196565;23;19958;-64
2022/04/13 08:53:33;;;;;;;10.45;6.70;;;;;;;10.00;100.00;100095.59;6194766;23;20063;-62
2022/04/13 08:56:19;;;;;;;12.43;6.53;;;;;;;10.21;100.00;100098.84;6163971;23;20102;-64
2022/04/13 08:59:19;;;;;;;17.30;7.47;;;;;;;10.42;100.00;100105.63;6193006;23;20060;-64
2022/04/13 09:02:03;;;;;;;15.48;7.40;;;;;;;10.24;100.00;100079.41;6191067;23;20024;-62
2022/04/13 09:04:51;;;;;;;12.05;6.90;;;;;;;10.51;100.00;100098.44;6161752;23;20020;-63
2022/04/13 09:07:36;;;;;;;13.07;7.38;;;;;;;10.38;100.00;100070.34;6191354;23;20028;-65
2022/04/13 09:10:23;;;;;;;9.15;6.88;;;;;;;10.58;100.00;100086.84;6191035;23;20059;-65
2022/04/13 09:13:12;;;;;;;11.77;7.28;;;;;;;10.33;100.00;100096.06;6184109;23;20067;-63
2022/04/13 09:15:58;;;;;;;13.02;7.38;;;;;;;10.44;100.00;100091.44;6191648;23;20063;-65
2022/04/13 09:18:43;;;;;;;13.23;6.80;;;;;;;10.44;100.00;100098.56;6160032;23;20371;-64
2022/04/13 09:21:30;;;;;;;14.98;7.18;;;;;;;10.80;100.00;100098.84;6192040;23;20063;-64
2022/04/13 09:24:15;;;;;;;15.77;7.78;;;;;;;11.04;100.00;100090.50;6182800;23;20071;-64
2022/04/13 09:26:59;;;;;;;9.57;6.72;;;;;;;10.96;100.00;100096.84;6192782;23;20075;-63
2022/04/13 09:29:45;;;;;;;11.73;7.43;;;;;;;11.05;100.00;100094.03;6191417;23;20071;-65
2022/04/13 09:32:31;;;;;;;13.27;7.57;;;;;;;11.33;100.00;100097.97;6191356;23;20027;-64
2022/04/13 09:35:17;;;;;;;15.40;7.18;;;;;;;11.06;100.00;100080.75;6192969;23;20128;-64
2022/04/13 09:38:07;;;;;;;10.45;7.05;;;;;;;11.37;100.00;100087.28;6194524;23;20023;-64
2022/04/13 09:40:52;;;;;;;13.77;6.65;;;;;;;11.31;100.00;100082.06;6183984;23;20344;-64
2022/04/13 09:43:38;;;;;;;14.25;6.30;;;;;;;11.39;100.00;100077.47;6194111;23;20156;-65
2022/04/13 09:46:30;;;;;;;14.40;6.47;;;;;;;11.76;100.00;100091.00;6160862;23;20024;-66
2022/04/13 09:49:21;;;;;;;12.35;6.03;;;;;;;11.85;100.00;100091.69;6184673;23;20505;-61
2022/04/13 09:52:06;;;;;;;14.32;7.15;;;;;;;11.59;100.00;100090.41;6185450;23;20031;-64
2022/04/13 09:54:51;;;;;;;;;;;;;;;11.50;100.00;100091.44;6184935;23;20020;-65
2022/04/13 09:57:36;;;;;;;14.18;7.03;;;;;;;11.49;100.00;100092.38;6195290;23;19911;-65
2022/04/13 10:00:21;;;;;;;12.75;7.07;;;;;;;11.42;100.00;100082.75;6183846;23;20063;-63
2022/04/13 10:03:14;;;;;;;16.48;7.10;;;;;;;11.45;100.00;100090.66;6193656;23;20023;-64
2022/04/13 10:06:01;;;;;;;19.45;8.13;;;;;;;11.39;100.00;100093.41;6194646;23;20336;-65
2022/04/13 10:08:59;;;;;;;19.55;8.30;;;;;;;11.50;100.00;100088.78;6142023;23;20112;-64
2022/04/13 10:12:03;;;;;;;18.70;8.35;;;;;;;11.35;100.00;100101.47;6195546;23;20048;-65
2022/04/13 10:14:48;;;;;;;17.73;9.15;;;;;;;11.07;100.00;100106.38;6142175;23;20016;-64
2022/04/13 10:17:34;;;;;;;18.27;8.95;;;;;;;10.96;100.00;100107.47;6193993;23;20459;-63
2022/04/13 10:20:18;;;;;;;28.17;11.50;;;;;;;11.14;100.00;100105.38;6184238;23;20016;-63
2022/04/13 10:23:03;;;;;;;14.30;9.23;;;;;;;10.97;100.00;100109.22;6195155;23;20019;-64
2022/04/13 10:25:50;;;;;;;23.48;9.82;;;;;;;10.88;100.00;100102.25;6183535;23;20016;-64
2022/04/13 10:28:45;;;;;;;18.08;8.65;;;;;;;10.96;100.00;100110.13;6184121;23;20020;-63
2022/04/13 10:31:30;;;;;;;14.23;7.88;;;;;;;11.08;100.00;100104.59;6183354;23;20096;-64
2022/04/13 10:34:15;;;;;;;18.70;10.35;;;;;;;11.10;100.00;100102.78;6173308;23;20104;-65
2022/04/13 10:37:00;;;;;;;21.45;8.68;;;;;;;11.15;100.00;100112.44;6183821;23;20019;-64
2022/04/13 10:39:46;;;;;;;20.30;9.48;;;;;;;10.94;100.00;100107.50;6194662;23;20035;-64
2022/04/13 10:42:31;;;;;;;23.70;9.15;;;;;;;11.07;100.00;100122.28;6183321;23;20016;-81
2022/04/13 10:45:17;;;;;;;19.02;9.00;;;;;;;11.01;100.00;100122.41;6162382;23;20023;-63
2022/04/13 10:48:10;;;;;;;16.38;9.50;;;;;;;10.83;100.00;100108.53;6193334;23;20071;-64
2022/04/13 10:51:16;;;;;;;19.70;9.43;;;;;;;10.81;100.00;100136.88;6183366;23;20063;-64
2022/04/13 10:54:03;;;;;;;22.45;8.70;;;;;;;10.89;100.00;100127.03;6161666;23;20140;-63
2022/04/13 10:56:56;;;;;;;26.08;8.52;;;;;;;10.74;100.00;100141.41;6182453;23;20454;-63
2022/04/13 10:59:56;;;;;;;25.55;9.60;;;;;;;10.85;100.00;100143.88;6173767;23;20289;-65
2022/04/13 11:02:55;;;;;;;21.48;9.38;;;;;;;10.65;100.00;100148.63;6184519;23;20024;-64
2022/04/13 11:05:41;;;;;;;23.40;9.20;;;;;;;10.36;100.00;100111.03;6194366;23;20059;-64
2022/04/13 11:08:52;;;;;;;16.92;8.10;;;;;;;10.73;100.00;100146.72;6192370;23;20032;-64
2022/04/13 11:11:37;;;;;;;19.33;9.35;;;;;;;10.70;100.00;100141.47;6192997;23;20024;-64
2022/04/13 11:14:24;;;;;;;16.90;8.57;;;;;;;10.47;100.00;100143.56;6193982;23;20043;-65
2022/04/13 11:17:15;;;;;;;19.40;9.23;;;;;;;10.60;100.00;100147.81;6193482;23;20067;-64
2022/04/13 11:20:22;;;;;;;15.63;8.13;;;;;;;10.61;100.00;100144.25;6184290;23;20071;-64
2022/04/13 11:23:16;;;;;;;21.38;9.68;;;;;;;10.33;100.00;100143.75;6182765;23;20043;-64
2022/04/13 11:26:02;;;;;;;17.33;9.83;;;;;;;10.00;100.00;100151.22;6185786;23;20467;-64
2022/04/13 11:29:10;;;;;;;21.98;9.75;;;;;;;9.89;100.00;100142.50;6184926;23;20458;-64
2022/04/13 11:32:01;;;;;;;19.95;9.48;;;;;;;9.71;100.00;100134.75;6198162;23;20359;-64
2022/04/13 11:34:52;;;;;;;19.77;9.50;;;;;;;9.92;100.00;100156.59;6162343;23;20032;-62
2022/04/13 11:37:37;;;;;;;25.23;9.35;;;;;;;9.45;100.00;100161.47;6193198;23;20066;-64
2022/04/13 11:40:23;;;;;;;24.52;9.63;;;;;;;9.48;100.00;100156.16;6183835;23;20020;-73
2022/04/13 11:43:10;;;;;;;25.27;10.13;;;;;;;9.78;100.00;100158.53;6183783;23;20052;-63
2022/04/13 11:45:54;;;;;;;19.77;9.75;;;;;;;9.95;100.00;100167.16;6195144;23;20431;-64
2022/04/13 11:48:39;;;;;;;18.55;8.45;;;;;;;9.78;100.00;100158.53;6193848;23;20024;-64
2022/04/13 11:51:29;;;;;;;22.27;10.23;;;;;;;9.79;100.00;100162.03;6194939;23;20324;-64
2022/04/13 11:54:13;;;;;;;21.60;10.93;;;;;;;9.66;100.00;100166.59;6193220;23;20023;-65
2022/04/13 11:56:58;;;;;;;23.60;10.48;;;;;;;9.64;100.00;100167.50;6183792;23;20019;-66
2022/04/13 11:59:52;;;;;;;20.83;10.85;;;;;;;9.79;100.00;100167.31;6184217;23;20437;-65
2022/04/13 12:02:37;;;;;;;19.05;9.85;;;;;;;9.69;100.00;100155.94;6183675;23;20023;-65
2022/04/13 12:05:24;;;;;;;24.25;10.73;;;;;;;9.78;100.00;100162.94;6195208;23;20075;-65
2022/04/13 12:08:13;;;;;;;30.15;10.93;;;;;;;9.75;100.00;100169.13;6183570;23;20454;-66
2022/04/13 12:11:01;;;;;;;24.50;10.95;;;;;;;9.74;100.00;100148.84;6195256;23;20024;-65
2022/04/13 12:13:53;;;;;;;21.98;11.13;;;;;;;9.73;100.00;100164.75;6186594;23;20020;-65
2022/04/13 12:16:38;;;;;;;26.30;11.13;;;;;;;9.68;100.00;100161.28;6196637;23;20024;-64
2022/04/13 12:19:23;;;;;;;21.42;11.00;;;;;;;9.61;100.00;100163.09;6164548;23;20095;-64
2022/04/13 12:22:19;;;;;;;26.80;10.73;;;;;;;9.61;100.00;100165.75;6196624;23;20039;-64
2022/04/13 12:25:06;;;;;;;22.38;10.40;;;;;;;9.59;100.00;100156.94;6196220;23;20470;-64
2022/04/13 12:28:05;;;;;;;24.67;10.95;;;;;;;9.59;100.00;100141.06;6185707;23;20064;-66
2022/04/13 12:31:02;;;;;;;25.83;9.93;;;;;;;9.57;100.00;100147.28;6143615;23;20020;-65
2022/04/13 12:33:46;;;;;;;22.52;10.35;;;;;;;9.44;100.00;100151.78;6196373;23;20395;-65
2022/04/13 12:36:31;;;;;;;23.67;10.63;;;;;;;9.33;100.00;100156.31;6163704;23;20068;-66
2022/04/13 12:39:15;;;;;;;26.00;10.05;;;;;;;9.25;100.00;100156.38;6185909;23;20020;-65
2022/04/13 12:42:04;;;;;;;25.08;10.70;;;;;;;9.18;100.00;100167.91;6195270;23;20055;-66
2022/04/13 12:44:48;;;;;;;26.00;10.18;;;;;;;9.24;100.00;100152.00;6175099;23;20152;-66
2022/04/13 12:47:32;;;;;;;24.15;11.20;;;;;;;9.14;100.00;100130.91;6163443;23;20094;-64
2022/04/13 12:50:16;;;;;;;68.10;12.97;;;;;;;9.44;100.00;100168.56;6163000;23;20055;-65
2022/04/13 12:53:02;;;;;;;22.45;10.63;;;;;;;9.25;100.00;100177.56;6142451;23;20024;-65